createdAt,value
2023-02-14T00:00:29.062Z,86.62
2023-02-14T00:02:57.117Z,86.76
2023-02-14T00:05:23.772Z,86.86
2023-02-14T00:07:50.275Z,87.03
2023-02-14T00:10:17.355Z,86.38
2023-02-14T00:12:43.863Z,86.68
2023-02-14T00:15:23.013Z,86.10
2023-02-14T00:17:59.523Z,86.59
2023-02-14T00:20:27.744Z,86.82
2023-02-14T00:22:54.674Z,86.66
2023-02-14T00:25:21.278Z,86.44
2023-02-14T00:27:47.784Z,86.84
2023-02-14T00:30:14.402Z,86.47
2023-02-14T00:32:42.269Z,86.31
2023-02-14T00:35:10.140Z,86.22
2023-02-14T00:37:38.192Z,86.74
2023-02-14T00:40:06.743Z,86.15
2023-02-14T00:42:33.275Z,86.27
2023-02-14T00:44:59.922Z,86.88
2023-02-14T00:47:26.436Z,87.22
2023-02-14T00:49:52.911Z,87.72
2023-02-14T00:52:19.473Z,87.48
2023-02-14T00:54:46.205Z,87.54
2023-02-14T00:57:12.666Z,86.90
2023-02-14T00:59:39.164Z,87.14
2023-02-14T01:02:05.702Z,87.37
2023-02-14T01:04:32.259Z,87.72
2023-02-14T01:06:58.698Z,87.32
2023-02-14T01:09:25.152Z,86.96
2023-02-14T01:11:51.645Z,86.51
2023-02-14T01:14:18.125Z,87.79
2023-02-14T01:16:44.664Z,87.37
2023-02-14T01:19:11.157Z,87.40
2023-02-14T01:21:37.721Z,87.46
2023-02-14T01:24:07.291Z,87.46
2023-02-14T01:26:34.388Z,87.61
2023-02-14T01:29:00.980Z,87.83
2023-02-14T01:31:30.138Z,87.60
2023-02-14T01:33:57.398Z,87.76
2023-02-14T01:36:29.799Z,87.91
2023-02-14T01:38:59.149Z,86.79
2023-02-14T01:41:27.684Z,86.65
2023-02-14T01:44:04.008Z,87.62
2023-02-14T01:46:33.908Z,87.12
2023-02-14T01:49:15.478Z,87.34
2023-02-14T01:51:48.336Z,88.06
2023-02-14T01:54:16.067Z,87.19
2023-02-14T01:56:47.613Z,87.03
2023-02-14T01:59:18.414Z,87.04
2023-02-14T02:01:48.673Z,86.94
2023-02-14T02:04:26.113Z,87.01
2023-02-14T02:06:57.185Z,86.59
2023-02-14T02:09:33.405Z,87.22
2023-02-14T02:12:00.995Z,87.76
2023-02-14T02:14:29.577Z,87.50
2023-02-14T02:17:57.812Z,86.51
2023-02-14T02:21:06.974Z,86.42
2023-02-14T02:24:01.184Z,87.09
2023-02-14T02:26:39.459Z,87.28
2023-02-14T02:29:23.817Z,87.27
2023-02-14T02:32:06.087Z,87.29
2023-02-14T02:34:57.539Z,87.53
2023-02-14T02:37:39.635Z,87.54
2023-02-14T02:40:22.308Z,87.58
2023-02-14T02:43:27.298Z,87.69
2023-02-14T02:46:23.139Z,87.34
2023-02-14T02:48:58.589Z,87.56
2023-02-14T02:51:55.743Z,86.90
2023-02-14T02:54:38.783Z,87.04
2023-02-14T02:57:12.737Z,86.71
2023-02-14T02:59:42.819Z,87.43
2023-02-14T03:02:20.594Z,86.88
2023-02-14T03:04:55.292Z,87.21
2023-02-14T03:07:36.558Z,87.36
2023-02-14T03:10:14.687Z,88.16
2023-02-14T03:12:53.333Z,87.77
2023-02-14T03:15:31.563Z,88.06
2023-02-14T03:19:03.362Z,86.78
2023-02-14T03:21:53.348Z,86.57
2023-02-14T03:24:48.151Z,86.42
2023-02-14T03:27:36.227Z,86.48
2023-02-14T03:30:12.009Z,86.46
2023-02-14T03:32:54.245Z,87.41
2023-02-14T03:35:30.521Z,86.48
2023-02-14T03:38:40.424Z,87.03
2023-02-14T03:41:17.688Z,86.14
2023-02-14T03:43:57.770Z,86.68
2023-02-14T03:46:30.453Z,86.84
2023-02-14T03:49:01.295Z,87.22
2023-02-14T03:51:34.264Z,86.92
2023-02-14T03:54:02.855Z,86.73
2023-02-14T03:56:38.002Z,87.10
2023-02-14T03:59:14.827Z,86.67
2023-02-14T04:01:50.502Z,86.88
2023-02-14T04:04:21.363Z,86.72
2023-02-14T04:06:48.270Z,86.41
2023-02-14T04:09:14.778Z,86.38
2023-02-14T04:11:41.554Z,85.92
2023-02-14T04:14:08.033Z,86.29
2023-02-14T04:16:57.367Z,86.12
2023-02-14T04:19:23.853Z,87.22
2023-02-14T04:21:51.687Z,86.47
2023-02-14T04:24:18.672Z,86.64
2023-02-14T04:26:54.154Z,86.52
2023-02-14T04:29:21.344Z,86.35
2023-02-14T04:31:48.352Z,86.41
2023-02-14T04:34:15.349Z,86.39
2023-02-14T04:36:41.774Z,86.18
2023-02-14T04:39:08.230Z,86.34
2023-02-14T04:41:34.673Z,86.84
2023-02-14T04:44:01.060Z,86.98
2023-02-14T04:46:27.540Z,87.24
2023-02-14T04:48:54.137Z,87.09
2023-02-14T04:51:20.610Z,87.32
2023-02-14T04:53:47.086Z,87.13
2023-02-14T04:56:13.556Z,86.78
2023-02-14T04:58:39.965Z,86.71
2023-02-14T05:01:06.622Z,86.61
2023-02-14T05:03:33.172Z,86.00
2023-02-14T05:05:59.659Z,86.31
2023-02-14T05:08:26.120Z,87.12
2023-02-14T05:10:52.541Z,86.96
2023-02-14T05:13:18.976Z,86.84
2023-02-14T05:15:46.181Z,86.66
2023-02-14T05:18:12.627Z,87.03
2023-02-14T05:20:39.039Z,87.45
2023-02-14T05:23:05.488Z,87.51
2023-02-14T05:25:32.101Z,87.74
2023-02-14T05:27:58.623Z,87.74
2023-02-14T05:30:28.082Z,87.09
2023-02-14T05:32:54.714Z,87.10
2023-02-14T05:35:21.240Z,86.54
2023-02-14T05:37:47.719Z,86.28
2023-02-14T05:40:16.226Z,86.58
2023-02-14T05:42:43.603Z,87.13
2023-02-14T05:45:10.698Z,86.43
2023-02-14T05:47:37.453Z,87.01
2023-02-14T05:50:04.758Z,87.83
2023-02-14T05:52:31.150Z,87.49
2023-02-14T05:54:57.551Z,86.98
2023-02-14T05:57:24.027Z,86.95
2023-02-14T05:59:50.490Z,87.24
2023-02-14T06:02:16.983Z,86.60
2023-02-14T06:04:43.495Z,86.80
2023-02-14T06:07:10.010Z,86.93
2023-02-14T06:09:36.627Z,86.27
2023-02-14T06:12:03.208Z,86.15
2023-02-14T06:14:29.741Z,86.73
2023-02-14T06:16:56.291Z,86.30
2023-02-14T06:19:22.774Z,86.68
2023-02-14T06:21:49.227Z,86.47
2023-02-14T06:24:15.779Z,86.41
2023-02-14T06:26:42.213Z,86.93
2023-02-14T06:29:08.751Z,86.87
2023-02-14T06:31:35.489Z,86.06
2023-02-14T06:34:02.081Z,86.99
2023-02-14T06:36:28.571Z,86.98
2023-02-14T06:38:55.032Z,87.03
2023-02-14T06:41:21.473Z,86.96
2023-02-14T06:43:48.791Z,86.63
2023-02-14T06:46:15.819Z,87.07
2023-02-14T06:48:43.010Z,86.00
2023-02-14T06:51:09.905Z,86.43
2023-02-14T06:53:36.742Z,85.77
2023-02-14T06:56:04.154Z,85.99
2023-02-14T06:58:31.001Z,85.77
2023-02-14T07:00:59.110Z,86.09
2023-02-14T07:03:26.912Z,86.33
2023-02-14T07:05:53.722Z,85.72
2023-02-14T07:08:20.849Z,86.46
2023-02-14T07:10:47.382Z,85.54
2023-02-14T07:13:13.861Z,85.92
2023-02-14T07:15:40.387Z,86.22
2023-02-14T07:18:08.763Z,86.66
2023-02-14T07:20:35.503Z,85.19
2023-02-14T07:23:02.123Z,86.04
2023-02-14T07:25:28.721Z,85.86
2023-02-14T07:27:55.514Z,85.62
2023-02-14T07:30:22.070Z,85.52
2023-02-14T07:32:48.501Z,86.17
2023-02-14T07:35:15.356Z,85.41
2023-02-14T07:37:41.993Z,85.14
2023-02-14T07:40:14.688Z,84.76
2023-02-14T07:42:41.589Z,84.58
2023-02-14T07:45:20.773Z,84.91
2023-02-14T07:47:52.768Z,84.86
2023-02-14T07:50:20.027Z,84.75
2023-02-14T07:52:46.459Z,84.45
2023-02-14T07:55:13.521Z,84.82
2023-02-14T07:57:40.021Z,84.62
2023-02-14T08:00:07.607Z,85.30
2023-02-14T08:02:34.121Z,84.83
2023-02-14T08:05:00.611Z,84.71
2023-02-14T08:07:27.126Z,84.75
2023-02-14T08:09:53.560Z,84.28
2023-02-14T08:12:38.708Z,83.41
2023-02-14T08:15:23.902Z,83.80
2023-02-14T08:17:50.368Z,83.28
2023-02-14T08:20:16.778Z,83.66
2023-02-14T08:22:43.283Z,83.02
2023-02-14T08:25:09.750Z,83.27
2023-02-14T08:27:36.598Z,82.63
2023-02-14T08:30:03.257Z,82.40
2023-02-14T08:32:29.865Z,82.98
2023-02-14T08:34:56.393Z,83.61
2023-02-14T08:37:22.928Z,82.68
2023-02-14T08:39:49.598Z,83.01
2023-02-14T08:42:16.075Z,82.61
2023-02-14T08:44:42.539Z,82.22
2023-02-14T08:47:09.014Z,81.55
2023-02-14T08:49:35.503Z,81.97
2023-02-14T08:52:02.020Z,81.54
2023-02-14T08:54:28.515Z,81.61
2023-02-14T08:56:55.001Z,81.19
2023-02-14T08:59:21.515Z,81.09
2023-02-14T09:01:47.971Z,80.98
2023-02-14T09:04:14.531Z,81.14
2023-02-14T09:06:41.021Z,81.19
2023-02-14T09:09:07.615Z,80.34
2023-02-14T09:11:34.828Z,80.56
2023-02-14T09:14:01.235Z,80.39
2023-02-14T09:16:27.720Z,79.89
2023-02-14T09:18:54.767Z,80.60
2023-02-14T09:21:24.864Z,80.46
2023-02-14T09:23:52.067Z,79.15
2023-02-14T09:26:19.022Z,78.38
2023-02-14T09:28:46.411Z,77.78
2023-02-14T09:31:17.375Z,78.69
2023-02-14T09:33:45.122Z,78.94
2023-02-14T09:36:11.634Z,77.92
2023-02-14T09:38:38.186Z,78.96
2023-02-14T09:41:09.440Z,77.79
2023-02-14T10:57:43.109Z,55.50
2023-02-14T11:00:12.657Z,57.12
2023-02-14T11:02:44.925Z,56.84
2023-02-14T11:05:46.666Z,50.50
2023-02-14T11:08:27.957Z,50.84
2023-02-14T11:11:11.416Z,51.15
2023-02-14T11:13:39.760Z,50.93
2023-02-14T11:16:10.191Z,51.01
2023-02-14T11:18:39.573Z,54.24
2023-02-14T11:21:06.002Z,56.52
2023-02-14T11:23:44.504Z,53.89
2023-02-14T11:26:28.393Z,52.87
2023-02-14T11:29:00.219Z,52.75
2023-02-14T11:31:36.690Z,53.58
2023-02-14T11:34:06.718Z,48.82
2023-02-14T11:36:41.893Z,50.27
2023-02-14T11:39:43.762Z,49.33
2023-02-14T11:42:12.610Z,49.60
2023-02-14T11:44:54.788Z,52.14
2023-02-14T11:47:32.936Z,52.65
2023-02-14T11:50:02.166Z,50.40
2023-02-14T11:52:30.295Z,47.73
2023-02-14T11:54:58.513Z,47.30
2023-02-14T11:57:38.868Z,46.08
2023-02-14T12:00:19.021Z,44.63
2023-02-14T12:02:50.523Z,44.56
2023-02-14T12:05:23.177Z,47.49
2023-02-14T12:07:54.358Z,44.88
2023-02-14T12:10:28.385Z,42.40
2023-02-14T12:13:10.060Z,42.69
2023-02-14T12:15:51.981Z,43.08
2023-02-14T12:18:23.882Z,44.17
2023-02-14T12:21:02.383Z,45.06
2023-02-14T12:23:50.707Z,43.80
2023-02-14T12:26:17.349Z,44.28
2023-02-14T12:28:50.037Z,41.99
2023-02-14T12:31:17.309Z,41.25
2023-02-14T12:33:46.361Z,42.81
2023-02-14T12:36:32.599Z,40.79
2023-02-14T12:39:31.085Z,40.09
2023-02-14T12:42:32.885Z,42.30
2023-02-14T12:45:25.640Z,40.57
2023-02-14T12:48:36.192Z,39.14
2023-02-14T12:51:29.688Z,38.17
2023-02-14T12:54:03.305Z,38.42
2023-02-14T12:56:55.148Z,40.01
2023-02-14T12:59:40.973Z,39.21
2023-02-14T13:02:19.316Z,39.87
2023-02-14T13:05:01.544Z,40.31
2023-02-14T13:07:37.657Z,36.83
2023-02-14T13:10:31.746Z,37.72
2023-02-14T13:13:12.583Z,40.09
2023-02-14T13:15:45.149Z,40.99
2023-02-14T13:18:34.306Z,38.25
2023-02-14T13:21:04.381Z,39.63
2023-02-14T13:23:39.428Z,40.97
2023-02-14T13:26:18.776Z,40.18
2023-02-14T13:28:52.474Z,39.38
2023-02-14T13:31:20.796Z,40.48
2023-02-14T13:34:01.788Z,40.24
2023-02-14T13:36:29.691Z,41.91
2023-02-14T13:38:58.491Z,41.78
2023-02-14T13:41:26.777Z,44.64
2023-02-14T13:43:58.113Z,43.61
2023-02-14T13:46:33.932Z,42.80
2023-02-14T13:49:39.298Z,44.66
2023-02-14T13:52:06.665Z,47.06
2023-02-14T13:54:48.800Z,51.34
2023-02-14T13:57:36.659Z,53.98
2023-02-14T14:00:18.807Z,59.11
2023-02-14T14:02:53.744Z,62.42
2023-02-14T14:05:29.653Z,63.10
2023-02-14T14:08:21.308Z,65.47
2023-02-14T14:10:49.405Z,64.26
2023-02-14T14:13:42.185Z,65.55
2023-02-14T14:16:24.258Z,65.87
2023-02-14T14:19:00.820Z,66.19
2023-02-14T14:21:33.843Z,66.65
2023-02-14T14:24:28.861Z,66.92
2023-02-14T14:27:01.436Z,66.45
2023-02-14T14:29:45.055Z,66.70
2023-02-14T14:32:26.360Z,66.68
2023-02-14T14:35:17.973Z,67.24
2023-02-14T14:37:52.532Z,67.25
2023-02-14T14:40:32.057Z,67.41
2023-02-14T14:43:21.619Z,67.68
2023-02-14T14:45:49.587Z,67.74
2023-02-14T14:48:47.281Z,68.25
2023-02-14T14:51:35.656Z,68.28
2023-02-14T14:54:18.238Z,68.37
2023-02-14T14:57:01.586Z,68.39
2023-02-14T14:59:35.401Z,67.92
2023-02-14T15:02:03.490Z,68.33
2023-02-14T15:04:35.357Z,68.62
2023-02-14T15:07:30.311Z,68.74
2023-02-14T15:09:56.846Z,68.34
2023-02-14T15:12:42.981Z,68.71
2023-02-14T15:15:16.653Z,69.07
2023-02-14T15:17:44.053Z,69.47
2023-02-14T15:20:18.726Z,69.58
2023-02-14T15:22:47.936Z,69.64
2023-02-14T15:25:44.564Z,69.79
2023-02-14T15:28:17.429Z,70.57
2023-02-14T15:30:45.141Z,70.65
2023-02-14T15:33:12.244Z,71.30
2023-02-14T15:35:43.959Z,71.07
2023-02-14T15:38:12.680Z,70.84
2023-02-14T16:14:30.522Z,74.84
2023-02-14T16:17:05.485Z,75.28
2023-02-14T16:19:50.181Z,74.45
2023-02-14T16:22:31.973Z,74.11
2023-02-14T16:24:59.218Z,74.36
2023-02-14T16:27:25.704Z,74.62
2023-02-14T16:29:52.211Z,74.55
2023-02-14T16:32:22.524Z,75.08
2023-02-14T16:34:49.661Z,75.52
2023-02-14T16:37:19.835Z,75.53
2023-02-14T16:39:47.356Z,75.52
2023-02-14T16:42:18.636Z,75.95
2023-02-14T16:44:46.074Z,76.13
2023-02-14T16:47:14.288Z,76.69
2023-02-14T16:49:41.971Z,76.70
2023-02-14T16:52:28.982Z,77.29
2023-02-14T16:54:55.466Z,78.00
2023-02-14T16:57:29.154Z,77.82
2023-02-14T16:59:56.566Z,77.82
2023-02-14T17:02:26.301Z,78.59
2023-02-14T17:04:52.832Z,78.99
2023-02-14T17:07:19.535Z,78.12
2023-02-14T17:09:52.458Z,78.91
2023-02-14T17:12:23.489Z,78.66
2023-02-14T17:14:53.831Z,79.43
2023-02-14T17:17:21.030Z,80.33
2023-02-14T17:19:47.541Z,80.15
2023-02-14T17:22:14.681Z,80.78
2023-02-14T17:24:41.593Z,80.73
2023-02-14T17:27:08.638Z,80.61
2023-02-14T17:29:35.533Z,80.40
2023-02-14T17:32:02.156Z,81.22
2023-02-14T17:34:33.243Z,80.87
2023-02-14T17:37:00.128Z,81.47
2023-02-14T17:39:26.702Z,81.30
2023-02-14T17:41:53.213Z,81.34
2023-02-14T17:44:19.621Z,81.83
2023-02-14T17:46:46.152Z,82.74
2023-02-14T17:49:12.677Z,81.11
2023-02-14T17:51:39.377Z,81.25
2023-02-14T17:54:05.870Z,81.85
2023-02-14T17:56:32.433Z,82.57
2023-02-14T17:58:59.861Z,82.54
2023-02-14T18:01:31.553Z,82.57
2023-02-14T18:03:58.188Z,82.75
2023-02-14T18:06:26.520Z,82.00
2023-02-14T18:08:56.676Z,82.35
2023-02-14T18:11:25.865Z,82.89
2023-02-14T18:13:56.640Z,82.65
2023-02-14T18:16:24.816Z,82.81
2023-02-14T18:18:51.665Z,83.17
2023-02-14T18:21:20.984Z,83.64
2023-02-14T18:23:48.113Z,83.11
2023-02-14T18:26:16.840Z,83.56
2023-02-14T18:28:43.410Z,83.09
2023-02-14T18:31:15.823Z,84.06
2023-02-14T18:33:43.274Z,83.68
2023-02-14T18:36:12.491Z,85.20
2023-02-14T18:38:40.029Z,83.91
2023-02-14T18:41:08.693Z,84.43
2023-02-14T18:43:36.390Z,84.68
2023-02-14T18:46:08.178Z,84.88
2023-02-14T18:48:36.027Z,84.37
2023-02-14T18:51:05.640Z,85.15
2023-02-14T18:53:32.192Z,84.78
2023-02-14T18:55:58.694Z,84.91
2023-02-14T18:58:25.321Z,84.60
2023-02-14T19:00:51.921Z,84.13
2023-02-14T19:03:18.593Z,85.22
2023-02-14T19:05:45.141Z,84.42
2023-02-14T19:08:11.596Z,85.41
2023-02-14T19:10:38.414Z,84.04
2023-02-14T19:13:06.300Z,84.43
2023-02-14T19:15:32.801Z,85.03
2023-02-14T19:17:59.395Z,85.60
2023-02-14T19:20:26.402Z,84.85
2023-02-14T19:22:52.927Z,84.95
2023-02-14T19:25:19.446Z,85.06
2023-02-14T19:27:46.004Z,84.15
2023-02-14T19:30:12.766Z,84.96
2023-02-14T19:32:39.337Z,85.08
2023-02-14T19:35:06.265Z,85.95
2023-02-14T19:37:32.763Z,86.67
2023-02-14T19:39:59.191Z,85.67
2023-02-14T19:42:25.749Z,86.89
2023-02-14T19:44:52.291Z,87.73
2023-02-14T19:47:29.033Z,87.66
2023-02-14T19:50:00.286Z,86.82
2023-02-14T19:52:28.156Z,87.23
2023-02-14T19:54:57.484Z,87.07
2023-02-14T19:57:24.656Z,86.64
2023-02-14T19:59:51.078Z,87.29
2023-02-14T20:02:19.835Z,87.45
2023-02-14T20:04:46.349Z,87.02
2023-02-14T20:07:12.999Z,87.37
2023-02-14T20:09:39.479Z,87.71
2023-02-14T20:12:06.651Z,87.49
2023-02-14T20:14:43.577Z,87.74
2023-02-14T20:17:17.207Z,87.80
2023-02-14T20:19:43.736Z,87.86
2023-02-14T20:22:10.255Z,88.15
2023-02-14T20:24:36.726Z,88.15
2023-02-14T20:27:03.329Z,88.33
2023-02-14T20:29:29.933Z,87.78
2023-02-14T20:31:59.689Z,87.56
2023-02-14T20:34:26.714Z,87.78
2023-02-14T20:36:55.251Z,88.20
2023-02-14T20:39:27.161Z,87.46
2023-02-14T20:41:54.255Z,87.83
2023-02-14T20:44:21.754Z,88.45
2023-02-14T20:46:50.325Z,87.11
2023-02-14T20:49:17.520Z,87.88
2023-02-14T20:51:44.479Z,87.36
2023-02-14T20:54:11.031Z,88.17
2023-02-14T20:56:40.052Z,87.98
2023-02-14T20:59:09.986Z,88.10
2023-02-14T21:01:36.584Z,88.68
2023-02-14T21:04:03.157Z,88.51
2023-02-14T21:06:32.830Z,88.56
2023-02-14T21:09:00.451Z,88.62
2023-02-14T21:11:27.972Z,89.22
2023-02-14T21:13:56.786Z,88.87
2023-02-14T21:16:24.716Z,89.10
2023-02-14T21:18:59.042Z,89.09
2023-02-14T21:21:36.213Z,88.88
2023-02-14T21:24:09.568Z,88.61
2023-02-14T21:26:36.324Z,88.96
2023-02-14T21:29:03.076Z,88.49
2023-02-14T21:31:29.732Z,89.14
2023-02-14T21:33:58.514Z,89.87
2023-02-14T21:36:27.620Z,89.36
2023-02-14T21:38:58.439Z,89.53
2023-02-14T21:41:30.277Z,88.43
2023-02-14T21:43:58.630Z,88.60
2023-02-14T21:46:31.130Z,88.61
2023-02-14T21:49:18.365Z,88.50
2023-02-14T21:51:45.914Z,88.09
2023-02-14T21:54:12.885Z,88.73
2023-02-14T21:56:39.787Z,87.85
2023-02-14T21:59:06.358Z,88.62
2023-02-14T22:01:35.225Z,87.75
2023-02-14T22:04:02.713Z,88.34
2023-02-14T22:06:29.232Z,88.42
2023-02-14T22:09:00.037Z,87.30
2023-02-14T22:11:28.787Z,87.60
2023-02-14T22:13:59.024Z,87.65
2023-02-14T22:16:25.793Z,88.18
2023-02-14T22:18:52.652Z,87.93
2023-02-14T22:21:22.407Z,87.74
2023-02-14T22:23:49.088Z,87.86
2023-02-14T22:26:22.937Z,87.49
2023-02-14T22:28:51.061Z,87.25
2023-02-14T22:31:18.713Z,87.42
2023-02-14T22:33:46.859Z,86.95
2023-02-14T22:36:13.480Z,87.39
2023-02-14T22:38:40.446Z,87.71
2023-02-14T22:41:17.158Z,87.25
2023-02-14T22:43:44.559Z,87.41
2023-02-14T22:46:19.965Z,87.51
2023-02-14T22:48:47.870Z,87.01
2023-02-14T22:51:20.840Z,87.15
2023-02-14T22:53:48.668Z,87.18
2023-02-14T22:56:18.308Z,86.63
2023-02-14T22:58:45.445Z,87.29
2023-02-14T23:01:20.067Z,87.37
2023-02-14T23:03:47.866Z,87.16
2023-02-14T23:06:15.232Z,87.56
2023-02-14T23:08:43.664Z,87.99
2023-02-14T23:11:12.896Z,87.80
2023-02-14T23:13:58.140Z,88.22
2023-02-14T23:16:43.645Z,87.64
2023-02-14T23:19:32.411Z,87.52
2023-02-14T23:22:06.518Z,87.60
2023-02-14T23:24:33.079Z,86.89
2023-02-14T23:26:59.898Z,86.82
2023-02-14T23:29:27.040Z,88.16
2023-02-14T23:31:53.776Z,88.42
2023-02-14T23:34:20.645Z,88.24
2023-02-14T23:36:47.355Z,88.10
2023-02-14T23:39:13.956Z,87.75
2023-02-14T23:41:49.878Z,88.13
2023-02-14T23:44:24.852Z,87.85
2023-02-14T23:46:54.507Z,87.55
2023-02-14T23:49:21.920Z,87.88
2023-02-14T23:51:50.144Z,88.37
2023-02-14T23:54:17.852Z,88.41
2023-02-14T23:56:45.737Z,87.92
2023-02-14T23:59:13.260Z,88.09
